createdAt,value
2022-12-12T00:01:23.734Z,-0.10
2022-12-12T00:03:51.861Z,-0.20
2022-12-12T00:06:22.853Z,-0.10
2022-12-12T00:08:50.634Z,0.60
2022-12-12T00:11:19.075Z,-0.20
2022-12-12T00:13:46.903Z,-0.20
2022-12-12T00:16:14.560Z,0.00
2022-12-12T00:18:42.729Z,-0.90
2022-12-12T00:21:17.516Z,0.40
2022-12-12T00:23:45.302Z,-0.10
2022-12-12T00:26:21.425Z,-0.40
2022-12-12T00:28:48.714Z,0.20
2022-12-12T00:31:16.925Z,0.00
2022-12-12T00:33:48.861Z,-0.50
2022-12-12T00:36:22.146Z,0.00
2022-12-12T00:39:01.931Z,1.10
2022-12-12T00:41:29.587Z,-0.10
2022-12-12T00:43:57.089Z,0.00
2022-12-12T00:46:26.137Z,0.00
2022-12-12T00:48:58.899Z,0.10
2022-12-12T00:51:28.469Z,-0.30
2022-12-12T00:53:56.229Z,0.00
2022-12-12T00:56:25.165Z,-1.30
2022-12-12T00:58:52.770Z,0.00
2022-12-12T01:01:26.744Z,0.00
2022-12-12T01:03:55.182Z,-0.20
2022-12-12T01:06:23.934Z,-0.20
2022-12-12T01:08:51.673Z,-0.40
2022-12-12T01:11:20.779Z,-0.30
2022-12-12T01:13:51.900Z,-0.20
2022-12-12T01:16:19.645Z,-0.60
2022-12-12T01:18:48.412Z,-0.50
2022-12-12T01:21:23.239Z,-0.80
2022-12-12T01:23:51.142Z,-0.50
2022-12-12T01:26:21.607Z,-0.30
2022-12-12T01:28:52.578Z,-0.40
2022-12-12T01:31:20.574Z,-0.90
2022-12-12T01:33:50.759Z,-0.50
2022-12-12T01:36:20.254Z,-0.50
2022-12-12T01:38:49.319Z,-0.80
2022-12-12T01:41:17.644Z,-0.50
2022-12-12T01:43:46.758Z,-0.50
2022-12-12T01:46:26.102Z,-0.50
2022-12-12T01:48:57.677Z,-0.60
2022-12-12T01:51:27.786Z,-0.50
2022-12-12T01:54:03.537Z,-0.60
2022-12-12T01:56:32.339Z,-0.70
2022-12-12T01:59:01.405Z,-0.80
2022-12-12T02:01:28.964Z,-0.50
2022-12-12T02:03:56.990Z,-0.50
2022-12-12T02:06:27.934Z,-0.60
2022-12-12T02:09:00.386Z,-0.90
2022-12-12T02:11:41.505Z,-0.30
2022-12-12T02:14:09.101Z,-0.50
2022-12-12T02:17:01.435Z,-0.60
2022-12-12T02:19:49.975Z,-0.90
2022-12-12T02:22:54.866Z,-0.70
2022-12-12T02:25:47.077Z,-0.60
2022-12-12T02:28:48.821Z,-0.40
2022-12-12T02:31:55.624Z,-0.60
2022-12-12T02:34:46.097Z,-0.50
2022-12-12T02:37:39.522Z,-0.70
2022-12-12T02:40:16.259Z,-0.60
2022-12-12T02:43:03.859Z,-0.50
2022-12-12T02:45:42.874Z,-0.60
2022-12-12T02:48:20.678Z,-0.70
2022-12-12T02:50:51.194Z,-0.70
2022-12-12T02:53:20.442Z,-0.70
2022-12-12T02:55:49.523Z,-0.50
2022-12-12T02:58:19.472Z,-0.60
2022-12-12T03:01:23.686Z,-0.50
2022-12-12T03:04:26.442Z,-0.50
2022-12-12T03:07:25.507Z,-0.50
2022-12-12T03:10:06.327Z,-0.60
2022-12-12T03:12:50.414Z,-0.70
2022-12-12T03:15:31.703Z,-0.50
2022-12-12T03:18:27.775Z,-0.50
2022-12-12T03:21:05.376Z,-0.50
2022-12-12T03:23:44.662Z,-0.50
2022-12-12T03:26:21.578Z,-0.50
2022-12-12T03:28:56.382Z,-0.50
2022-12-12T03:31:28.656Z,-0.50
2022-12-12T03:34:21.430Z,-0.50
2022-12-12T03:37:05.519Z,-0.50
2022-12-12T03:39:38.462Z,-0.50
2022-12-12T03:42:30.940Z,-0.40
2022-12-12T03:45:12.688Z,-0.40
2022-12-12T03:47:53.119Z,-0.40
2022-12-12T03:50:22.531Z,-0.50
2022-12-12T03:53:09.476Z,-0.40
2022-12-12T03:55:45.239Z,-0.40
2022-12-12T03:58:15.287Z,-0.50
2022-12-12T04:00:45.344Z,-0.70
2022-12-12T04:03:27.369Z,-0.40
2022-12-12T04:06:19.298Z,-0.40
2022-12-12T04:09:08.580Z,-0.50
2022-12-12T04:12:12.104Z,-0.80
2022-12-12T04:14:48.432Z,-0.50
2022-12-12T04:17:22.808Z,-0.60
2022-12-12T04:20:27.185Z,-0.70
2022-12-12T04:23:23.951Z,-0.60
2022-12-12T04:26:15.585Z,-0.70
2022-12-12T04:29:15.977Z,-0.50
2022-12-12T04:32:12.855Z,-0.80
2022-12-12T04:34:53.911Z,0.20
2022-12-12T04:37:43.989Z,-1.10
2022-12-12T04:40:15.868Z,-1.40
2022-12-12T04:42:50.402Z,-0.80
2022-12-12T04:45:22.033Z,-1.70
2022-12-12T04:47:53.757Z,-0.80
2022-12-12T04:50:27.504Z,-0.80
2022-12-12T04:52:57.054Z,-0.80
2022-12-12T04:55:40.156Z,-1.90
2022-12-12T04:58:07.681Z,-0.80
2022-12-12T05:00:47.880Z,-0.90
2022-12-12T05:04:01.543Z,-0.90
2022-12-12T05:06:46.406Z,-0.80
2022-12-12T05:09:16.720Z,-1.10
2022-12-12T05:11:44.804Z,-1.30
2022-12-12T05:14:15.538Z,-1.00
2022-12-12T05:16:54.082Z,-1.00
2022-12-12T05:19:21.530Z,-1.10
2022-12-12T05:21:49.330Z,-1.60
2022-12-12T05:24:16.549Z,-1.40
2022-12-12T05:26:43.840Z,-1.10
2022-12-12T05:29:11.632Z,-1.10
2022-12-12T05:31:38.915Z,-1.30
2022-12-12T05:34:09.109Z,-1.20
2022-12-12T05:36:36.593Z,-1.20
2022-12-12T05:39:04.127Z,-1.20
2022-12-12T05:41:31.649Z,-1.30
2022-12-12T05:43:58.956Z,-1.10
2022-12-12T05:46:29.500Z,-1.30
2022-12-12T05:48:57.305Z,-1.30
2022-12-12T05:51:25.403Z,-1.30
2022-12-12T05:53:52.710Z,-1.40
2022-12-12T05:56:19.997Z,-1.50
2022-12-12T05:58:47.499Z,-1.60
2022-12-12T06:01:14.957Z,-2.00
2022-12-12T06:03:42.863Z,-1.30
2022-12-12T06:06:10.430Z,-1.50
2022-12-12T06:08:40.285Z,-1.60
2022-12-12T06:11:08.296Z,-1.40
2022-12-12T06:13:36.725Z,-1.50
2022-12-12T06:16:13.286Z,-1.00
2022-12-12T06:18:40.816Z,-1.60
2022-12-12T06:21:10.514Z,-1.60
2022-12-12T06:23:44.188Z,-1.30
2022-12-12T06:26:13.330Z,-1.90
2022-12-12T06:28:41.225Z,-0.40
2022-12-12T06:31:12.534Z,-1.50
2022-12-12T06:33:43.562Z,-1.40
2022-12-12T06:36:19.114Z,-1.50
2022-12-12T06:38:46.581Z,-1.50
2022-12-12T06:41:14.869Z,-1.70
2022-12-12T06:43:42.453Z,-1.90
2022-12-12T06:46:30.736Z,-1.40
2022-12-12T06:49:01.197Z,-1.50
2022-12-12T06:51:33.477Z,-1.60
2022-12-12T06:54:04.031Z,-1.00
2022-12-12T06:56:32.149Z,-1.90
2022-12-12T06:59:00.105Z,-1.40
2022-12-12T07:01:27.567Z,-1.10
2022-12-12T07:03:58.646Z,-1.40
2022-12-12T07:06:26.327Z,-1.60
2022-12-12T07:08:53.652Z,-1.70
2022-12-12T07:11:25.356Z,-1.70
2022-12-12T07:13:56.959Z,-1.50
2022-12-12T07:16:24.509Z,-1.70
2022-12-12T07:18:51.844Z,-1.40
2022-12-12T07:21:20.864Z,-1.70
2022-12-12T07:23:50.894Z,-1.40
2022-12-12T07:26:26.366Z,-1.40
2022-12-12T07:28:56.137Z,-1.40
2022-12-12T07:31:26.983Z,-0.80
2022-12-12T07:34:03.379Z,-1.40
2022-12-12T07:36:30.802Z,-1.40
2022-12-12T07:38:58.156Z,-1.50
2022-12-12T07:41:26.742Z,-1.30
2022-12-12T07:43:54.037Z,-1.50
2022-12-12T07:46:25.020Z,-1.50
2022-12-12T07:48:53.852Z,-1.50
2022-12-12T07:51:22.082Z,-1.10
2022-12-12T07:53:49.693Z,-0.90
2022-12-12T07:56:20.598Z,-1.50
2022-12-12T07:58:48.457Z,-0.90
2022-12-12T08:01:25.052Z,-1.00
2022-12-12T08:03:53.441Z,-1.00
2022-12-12T08:06:24.880Z,-1.00
2022-12-12T08:08:53.039Z,-0.70
2022-12-12T08:11:23.336Z,-0.90
2022-12-12T08:13:51.533Z,-0.80
2022-12-12T08:16:22.117Z,-0.70
2022-12-12T08:18:50.206Z,-0.60
2022-12-12T08:21:25.417Z,-0.60
2022-12-12T08:24:02.420Z,-0.70
2022-12-12T08:26:31.183Z,-0.50
2022-12-12T08:28:59.460Z,-1.50
2022-12-12T08:31:27.583Z,-0.10
2022-12-12T08:33:56.112Z,-0.40
2022-12-12T08:36:27.032Z,-0.40
2022-12-12T08:38:54.498Z,-0.30
2022-12-12T08:41:22.779Z,-0.10
2022-12-12T08:43:52.490Z,-0.30
2022-12-12T08:46:27.590Z,-0.20
2022-12-12T08:48:55.013Z,-0.30
2022-12-12T08:51:22.631Z,-0.40
2022-12-12T08:53:51.524Z,-0.30
2022-12-12T08:56:20.837Z,-0.20
2022-12-12T09:01:52.885Z,0.10
2022-12-12T09:05:19.178Z,-0.20
2022-12-12T09:08:29.738Z,0.10
2022-12-12T09:14:14.698Z,0.20
2022-12-12T09:23:45.198Z,0.30
2022-12-12T09:36:27.536Z,-0.30
2022-12-12T09:38:57.207Z,0.30
2022-12-12T09:49:04.874Z,0.50
2022-12-12T09:51:36.849Z,0.50
2022-12-12T09:57:57.435Z,0.20
2022-12-12T10:00:44.484Z,0.00
2022-12-12T10:11:31.695Z,0.30
2022-12-12T10:14:39.943Z,0.30
2022-12-12T10:17:41.771Z,0.20
2022-12-12T10:24:13.533Z,0.10
2022-12-12T10:26:50.327Z,0.10
2022-12-12T10:29:29.593Z,0.00
2022-12-12T10:33:06.060Z,0.10
2022-12-12T10:36:19.790Z,0.00
2022-12-12T10:42:24.193Z,0.00
2022-12-12T10:45:09.537Z,0.10
2022-12-12T10:47:36.964Z,0.10
2022-12-12T10:50:13.754Z,0.00
2022-12-12T10:52:41.836Z,0.20
2022-12-12T10:55:20.008Z,0.30
2022-12-12T10:58:05.496Z,0.60
2022-12-12T11:00:44.358Z,0.50
2022-12-12T11:03:22.626Z,0.30
2022-12-12T11:05:50.254Z,0.50
2022-12-12T11:08:33.105Z,0.60
2022-12-12T11:11:34.973Z,0.80
2022-12-12T11:14:05.881Z,0.50
2022-12-12T11:16:45.991Z,0.60
2022-12-12T11:19:24.275Z,0.30
2022-12-12T11:21:54.477Z,0.60
2022-12-12T11:24:32.453Z,0.80
2022-12-12T11:27:11.422Z,0.90
2022-12-12T11:32:37.610Z,0.80
2022-12-12T11:35:47.518Z,0.60
2022-12-12T11:38:45.497Z,0.30
2022-12-12T11:41:22.913Z,0.10
2022-12-12T11:44:08.739Z,0.40
2022-12-12T11:46:36.368Z,0.60
2022-12-12T11:49:05.849Z,0.60
2022-12-12T11:51:45.055Z,0.60
2022-12-12T11:54:34.952Z,0.50
2022-12-12T11:57:38.057Z,0.40
2022-12-12T12:00:19.531Z,0.20
2022-12-12T12:03:18.814Z,0.30
2022-12-12T12:06:06.267Z,0.80
2022-12-12T12:09:11.906Z,1.10
2022-12-12T12:12:03.081Z,0.90
2022-12-12T12:15:03.807Z,0.80
2022-12-12T12:17:58.852Z,1.20
2022-12-12T12:20:46.344Z,0.70
2022-12-12T12:23:42.594Z,0.40
2022-12-12T12:26:49.948Z,0.30
2022-12-12T12:30:04.793Z,0.20
2022-12-12T12:33:08.468Z,0.00
2022-12-12T12:35:41.701Z,0.10
2022-12-12T12:38:39.321Z,0.00
2022-12-12T12:41:09.985Z,-0.40
2022-12-12T12:44:12.387Z,-0.10
2022-12-12T12:47:03.104Z,-0.20
2022-12-12T12:50:06.035Z,-0.10
2022-12-12T12:52:39.440Z,0.00
2022-12-12T12:55:16.178Z,-0.20
2022-12-12T12:57:55.135Z,0.10
2022-12-12T13:00:44.613Z,0.00
2022-12-12T13:03:33.450Z,0.00
2022-12-12T13:06:05.126Z,-0.10
2022-12-12T13:08:44.575Z,0.00
2022-12-12T13:11:27.346Z,-0.90
2022-12-12T13:14:07.864Z,-0.10
2022-12-12T13:16:37.961Z,0.00
2022-12-12T13:19:23.697Z,0.00
2022-12-12T13:25:44.137Z,-0.10
2022-12-12T13:32:50.747Z,-0.40
2022-12-12T13:35:43.125Z,-0.10
2022-12-12T13:44:51.173Z,-0.30
2022-12-12T14:14:36.863Z,-0.30
2022-12-12T14:17:18.843Z,-0.40
2022-12-12T14:19:52.756Z,-0.50
2022-12-12T14:22:49.302Z,-0.50
2022-12-12T14:25:34.333Z,-0.70
2022-12-12T14:28:28.579Z,-0.70
2022-12-12T14:31:17.073Z,-0.60
2022-12-12T14:34:16.589Z,-0.50
2022-12-12T14:37:12.078Z,-0.60
2022-12-12T14:39:53.314Z,-0.50
2022-12-12T14:42:27.919Z,-0.70
2022-12-12T14:45:25.461Z,0.30
2022-12-12T14:48:21.949Z,-0.70
2022-12-12T14:51:27.675Z,-1.00
2022-12-12T14:53:59.369Z,-0.70
2022-12-12T14:56:54.881Z,-0.80
2022-12-12T14:59:26.928Z,-0.90
2022-12-12T15:01:57.499Z,-1.00
2022-12-12T15:04:32.371Z,-0.80
2022-12-12T15:07:06.037Z,-0.90
2022-12-12T15:09:41.757Z,-1.00
2022-12-12T15:12:16.335Z,-1.20
2022-12-12T15:14:50.051Z,-1.00
2022-12-12T15:17:23.018Z,-1.60
2022-12-12T15:20:09.815Z,-0.90
2022-12-12T15:22:44.340Z,-1.00
2022-12-12T15:25:21.331Z,-1.10
2022-12-12T15:27:55.585Z,-0.90
2022-12-12T15:30:39.561Z,-0.90
2022-12-12T15:33:18.594Z,-0.90
2022-12-12T15:35:59.649Z,-0.90
2022-12-12T15:38:29.449Z,-0.90
2022-12-12T15:40:59.012Z,-0.90
2022-12-12T15:43:28.739Z,-1.00
2022-12-12T15:46:07.281Z,-1.10
2022-12-12T15:48:35.274Z,-0.80
2022-12-12T15:51:06.885Z,-0.20
2022-12-12T15:53:41.005Z,-0.90
2022-12-12T15:56:14.404Z,-1.00
2022-12-12T15:58:44.979Z,-0.90
2022-12-12T16:01:20.850Z,-0.90
2022-12-12T16:04:04.629Z,-0.90
2022-12-12T16:06:39.152Z,-0.90
2022-12-12T16:09:26.839Z,-0.90
2022-12-12T16:11:58.794Z,-1.00
2022-12-12T16:14:40.081Z,-0.90
2022-12-12T16:17:13.903Z,-0.90
2022-12-12T16:19:46.590Z,-1.10
2022-12-12T16:22:37.463Z,-0.60
2022-12-12T16:25:18.557Z,-0.90
2022-12-12T16:27:49.426Z,-1.20
2022-12-12T16:30:17.742Z,-1.30
2022-12-12T16:32:45.489Z,-1.00
2022-12-12T16:35:19.867Z,-1.00
2022-12-12T16:37:47.589Z,-1.00
2022-12-12T16:40:19.245Z,-0.90
2022-12-12T16:43:03.654Z,-0.90
2022-12-12T16:45:34.091Z,-1.10
2022-12-12T16:48:13.808Z,-1.30
2022-12-12T16:50:41.670Z,-0.80
2022-12-12T16:53:11.537Z,-0.80
2022-12-12T16:55:42.849Z,-0.80
2022-12-12T16:58:10.930Z,-1.90
2022-12-12T17:00:39.127Z,-0.80
2022-12-12T17:03:07.265Z,-1.00
2022-12-12T17:05:35.515Z,-0.70
2022-12-12T17:08:02.988Z,-1.00
2022-12-12T17:10:32.209Z,-0.80
2022-12-12T17:12:59.887Z,-0.80
2022-12-12T17:15:29.953Z,-0.70
2022-12-12T17:17:58.417Z,-0.80
2022-12-12T17:20:27.259Z,-0.70
2022-12-12T17:25:57.229Z,-0.70
2022-12-12T17:28:28.799Z,-0.70
2022-12-12T17:30:56.754Z,-1.10
2022-12-12T17:33:27.641Z,-0.70
2022-12-12T17:36:03.792Z,-0.50
2022-12-12T17:38:32.127Z,-0.90
2022-12-12T17:41:04.354Z,-1.50
2022-12-12T17:43:32.138Z,-1.20
2022-12-12T17:46:08.209Z,-0.70
2022-12-12T17:48:36.755Z,0.30
2022-12-12T17:51:07.441Z,-0.70
2022-12-12T17:53:40.942Z,-0.80
2022-12-12T17:56:19.591Z,-0.60
2022-12-12T17:58:49.544Z,-0.70
2022-12-12T18:01:29.229Z,-0.70
2022-12-12T18:03:57.977Z,-0.60
2022-12-12T18:06:26.139Z,-0.60
2022-12-12T18:08:54.698Z,-0.60
2022-12-12T18:11:29.172Z,-0.60
2022-12-12T18:13:58.813Z,-0.60
2022-12-12T18:16:28.144Z,-0.60
2022-12-12T18:18:56.403Z,-0.60
2022-12-12T18:21:58.931Z,-0.70
2022-12-12T18:24:16.068Z,-0.60
2022-12-12T18:26:43.886Z,-0.60
2022-12-12T18:29:14.092Z,-0.60
2022-12-12T18:31:41.898Z,-0.60
2022-12-12T18:34:09.428Z,-0.60
2022-12-12T18:36:39.243Z,-0.70
2022-12-12T18:39:07.427Z,-0.70
2022-12-12T18:41:36.863Z,-0.70
2022-12-12T18:44:11.359Z,-0.70
2022-12-12T18:46:43.069Z,-0.70
2022-12-12T18:49:16.145Z,-0.70
2022-12-12T18:51:47.345Z,-0.80
2022-12-12T18:54:16.848Z,-0.80
2022-12-12T18:56:46.742Z,-0.80
2022-12-12T18:59:16.880Z,-0.80
2022-12-12T19:01:45.281Z,-0.80
2022-12-12T19:04:20.886Z,-0.80
2022-12-12T19:06:52.735Z,-0.90
2022-12-12T19:09:22.291Z,-0.90
2022-12-12T19:11:50.637Z,-0.90
2022-12-12T19:14:19.823Z,-1.00
2022-12-12T19:16:48.474Z,-0.90
2022-12-12T19:19:16.754Z,-0.90
2022-12-12T19:21:44.357Z,-1.00
2022-12-12T19:24:12.877Z,-1.00
2022-12-12T19:26:44.283Z,-1.00
2022-12-12T19:29:16.524Z,-1.00
2022-12-12T19:31:52.617Z,-1.00
2022-12-12T19:34:25.686Z,-1.00
2022-12-12T19:36:55.017Z,-1.00
2022-12-12T19:39:24.117Z,-1.00
2022-12-12T19:41:52.077Z,-1.10
2022-12-12T19:44:19.802Z,-1.00
2022-12-12T19:46:49.393Z,-1.00
2022-12-12T19:49:18.764Z,-1.00
2022-12-12T19:51:46.587Z,-0.90
2022-12-12T19:54:17.855Z,-0.90
2022-12-12T19:56:46.556Z,-0.90
2022-12-12T19:59:18.867Z,-0.90
2022-12-12T20:01:47.811Z,-0.80
2022-12-12T20:04:21.659Z,-0.80
2022-12-12T20:06:51.002Z,-0.80
2022-12-12T20:09:27.175Z,-0.80
2022-12-12T20:11:56.191Z,-0.80
2022-12-12T20:14:30.011Z,-0.70
2022-12-12T20:16:58.591Z,-0.80
2022-12-12T20:19:28.796Z,-0.70
2022-12-12T20:22:01.812Z,-0.70
2022-12-12T20:24:32.978Z,-0.70
2022-12-12T20:27:04.271Z,-0.70
2022-12-12T20:29:34.681Z,-0.70
2022-12-12T20:32:02.831Z,-0.70
2022-12-12T20:34:30.445Z,-0.70
2022-12-12T20:36:59.584Z,-0.70
2022-12-12T20:39:27.243Z,-0.70
2022-12-12T20:41:57.130Z,-0.70
2022-12-12T20:44:25.847Z,-0.80
2022-12-12T20:46:54.227Z,-0.80
2022-12-12T20:49:24.119Z,-0.80
2022-12-12T20:51:56.809Z,-0.80
2022-12-12T20:54:26.863Z,-0.80
2022-12-12T20:56:59.278Z,-0.80
2022-12-12T20:59:28.058Z,-0.80
2022-12-12T21:01:55.882Z,-0.80
2022-12-12T21:04:24.588Z,-0.80
2022-12-12T21:06:52.384Z,-0.70
2022-12-12T21:09:25.574Z,-0.80
2022-12-12T21:11:55.526Z,-0.80
2022-12-12T21:14:23.416Z,-0.70
2022-12-12T21:16:52.423Z,-0.80
2022-12-12T21:19:23.415Z,-0.80
2022-12-12T21:21:51.028Z,-0.70
2022-12-12T21:24:18.564Z,-0.70
2022-12-12T21:26:46.228Z,-0.70
2022-12-12T21:29:14.025Z,-0.70
2022-12-12T21:31:49.819Z,-0.70
2022-12-12T21:34:20.008Z,-0.70
2022-12-12T21:36:49.547Z,-0.70
2022-12-12T21:39:16.768Z,-0.70
2022-12-12T21:41:45.428Z,-0.70
2022-12-12T21:44:12.444Z,-0.70
2022-12-12T21:46:42.093Z,-0.70
2022-12-12T21:49:28.722Z,-0.70
2022-12-12T21:51:59.233Z,-0.70
2022-12-12T21:54:29.285Z,-0.70
2022-12-12T21:56:58.003Z,-0.70
2022-12-12T21:59:25.860Z,-0.70
2022-12-12T22:01:57.777Z,-0.70
2022-12-12T22:04:25.587Z,-0.60
2022-12-12T22:06:52.926Z,-0.60
2022-12-12T22:09:20.590Z,-0.70
2022-12-12T22:11:49.361Z,-0.60
2022-12-12T22:14:20.739Z,-0.70
2022-12-12T22:16:48.910Z,-0.70
2022-12-12T22:19:17.625Z,-0.60
2022-12-12T22:21:46.607Z,-0.60
2022-12-12T22:24:14.481Z,-0.60
2022-12-12T22:26:44.196Z,-0.60
2022-12-12T22:29:15.118Z,-0.60
2022-12-12T22:31:42.853Z,-0.60
2022-12-12T22:34:19.313Z,-0.70
2022-12-12T22:36:47.156Z,-0.70
2022-12-12T22:39:20.243Z,-2.10
2022-12-12T22:41:47.678Z,-0.70
2022-12-12T22:44:17.231Z,-0.80
2022-12-12T22:46:46.201Z,-0.80
2022-12-12T22:49:15.839Z,-1.80
2022-12-12T22:51:43.740Z,-0.90
2022-12-12T22:54:11.643Z,-0.90
2022-12-12T22:56:39.685Z,-0.80
2022-12-12T22:59:08.028Z,-0.90
2022-12-12T23:01:35.094Z,-0.90
2022-12-12T23:04:02.487Z,-0.90
2022-12-12T23:06:31.927Z,-0.90
2022-12-12T23:09:05.451Z,-0.90
2022-12-12T23:11:33.444Z,-0.90
2022-12-12T23:14:03.260Z,-0.90
2022-12-12T23:16:31.170Z,-0.90
2022-12-12T23:18:58.993Z,-0.90
2022-12-12T23:21:26.941Z,-0.90
2022-12-12T23:23:55.432Z,-0.90
2022-12-12T23:26:25.884Z,-1.00
2022-12-12T23:28:53.238Z,-1.00
2022-12-12T23:31:23.016Z,-1.00
2022-12-12T23:33:57.909Z,-1.00
2022-12-12T23:36:25.976Z,-1.00
2022-12-12T23:38:57.549Z,-1.10
2022-12-12T23:41:25.613Z,-1.10
2022-12-12T23:43:53.193Z,-1.10
2022-12-12T23:46:31.596Z,-1.10
2022-12-12T23:49:04.523Z,-1.10
2022-12-12T23:51:34.424Z,-1.10
2022-12-12T23:54:04.585Z,-1.10
2022-12-12T23:56:31.968Z,-1.20
2022-12-12T23:59:00.280Z,-1.20
